EJU17HC EHAM-LIML
Flight info
| Callsign | EJU17HC |
|---|---|
| Flight time | 1h 16m |
| Altitude | 37000 |
| Route | EDUPO Z739 MISGO DCT ASBON DCT TUSUK DCT KRH DCT NATOR DCT TRA DCT RIPUS DCT GERSA DCT SOSON DCT ODINA |
| Aircraft | A320/M-SDE2E3FGHIJ1RWXYZ/LB1 |
Departure
| Time | 2026-05-07 12:22 |
|---|---|
| Airport | Amsterdam Airport Schiphol (EHAM) |
Arrival
| Time | 2026-05-07 13:38 |
|---|---|
| Airport | Milano Linate Airport (LIML) |
| Time | Latitude | Longitude | Altitude | Speed | Heading |
|---|---|---|---|---|---|
| 2026-05-07 12:02 | 52.31009 | 4.75405 | -1 ft | 0 kts | 148° |
| 2026-05-07 12:09 | 52.31019 | 4.75394 | -1 ft | 3 kts | 147° |
| 2026-05-07 12:10 | 52.31035 | 4.75378 | -1 ft | 3 kts | 142° |
| 2026-05-07 12:10 | 52.31047 | 4.75354 | -1 ft | 3 kts | 71° |
| 2026-05-07 12:10 | 52.31045 | 4.75345 | -1 ft | 0 kts | 58° |
| 2026-05-07 12:13 | 52.31050 | 4.75359 | -1 ft | 6 kts | 59° |
| 2026-05-07 12:13 | 52.31089 | 4.75463 | -1 ft | 13 kts | 55° |
| 2026-05-07 12:13 | 52.31181 | 4.75470 | -1 ft | 15 kts | 348° |
| 2026-05-07 12:14 | 52.31269 | 4.75458 | -1 ft | 13 kts | 358° |
| 2026-05-07 12:14 | 52.31355 | 4.75450 | -1 ft | 12 kts | 357° |
| 2026-05-07 12:14 | 52.31422 | 4.75371 | -1 ft | 17 kts | 276° |
| 2026-05-07 12:14 | 52.31417 | 4.75177 | -1 ft | 11 kts | 265° |
| 2026-05-07 12:15 | 52.31411 | 4.75002 | -1 ft | 17 kts | 266° |
| 2026-05-07 12:15 | 52.31405 | 4.74818 | -1 ft | 15 kts | 267° |
| 2026-05-07 12:15 | 52.31401 | 4.74652 | -1 ft | 14 kts | 268° |
| 2026-05-07 12:15 | 52.31396 | 4.74514 | -1 ft | 7 kts | 265° |
| 2026-05-07 12:16 | 52.31393 | 4.74442 | -1 ft | 6 kts | 267° |
| 2026-05-07 12:16 | 52.31390 | 4.74330 | -1 ft | 16 kts | 268° |
| 2026-05-07 12:16 | 52.31375 | 4.74159 | -1 ft | 13 kts | 231° |
| 2026-05-07 12:16 | 52.31297 | 4.74130 | -1 ft | 11 kts | 184° |
| 2026-05-07 12:17 | 52.31223 | 4.74123 | -1 ft | 10 kts | 183° |
| 2026-05-07 12:17 | 52.31126 | 4.74113 | -1 ft | 18 kts | 184° |
| 2026-05-07 12:17 | 52.31013 | 4.74104 | -1 ft | 14 kts | 182° |
| 2026-05-07 12:17 | 52.30922 | 4.74095 | -1 ft | 12 kts | 184° |
| 2026-05-07 12:18 | 52.30843 | 4.74087 | -1 ft | 11 kts | 182° |
| 2026-05-07 12:18 | 52.30778 | 4.74083 | -1 ft | 9 kts | 182° |
| 2026-05-07 12:18 | 52.30718 | 4.74079 | -1 ft | 8 kts | 182° |
| 2026-05-07 12:18 | 52.30652 | 4.74073 | -1 ft | 13 kts | 184° |
| 2026-05-07 12:19 | 52.30533 | 4.74061 | -1 ft | 20 kts | 184° |
| 2026-05-07 12:19 | 52.30425 | 4.74053 | -1 ft | 14 kts | 183° |
| 2026-05-07 12:19 | 52.30340 | 4.74019 | -1 ft | 12 kts | 204° |
| 2026-05-07 12:19 | 52.30269 | 4.73968 | -1 ft | 11 kts | 204° |
| 2026-05-07 12:20 | 52.30221 | 4.73916 | -1 ft | 0 kts | 218° |
| 2026-05-07 12:20 | 52.30216 | 4.73910 | -1 ft | 5 kts | 218° |
| 2026-05-07 12:20 | 52.30190 | 4.73803 | -2 ft | 14 kts | 278° |
| 2026-05-07 12:21 | 52.30265 | 4.73744 | -4 ft | 14 kts | 1° |
| 2026-05-07 12:21 | 52.30350 | 4.73749 | -4 ft | 11 kts | 3° |
| 2026-05-07 12:21 | 52.30644 | 4.73778 | -3 ft | 81 kts | 3° |
| 2026-05-07 12:21 | 52.31430 | 4.73849 | -2 ft | 143 kts | 3° |
| 2026-05-07 12:22 | 52.32554 | 4.73938 | 296 ft | 171 kts | 7° |
| 2026-05-07 12:22 | 52.33708 | 4.74262 | 1132 ft | 167 kts | 16° |
| 2026-05-07 12:22 | 52.34849 | 4.74903 | 1621 ft | 184 kts | 21° |
| 2026-05-07 12:22 | 52.36114 | 4.75717 | 1970 ft | 206 kts | 22° |
| 2026-05-07 12:23 | 52.37504 | 4.76666 | 2362 ft | 229 kts | 28° |
| 2026-05-07 12:23 | 52.38769 | 4.78423 | 2896 ft | 248 kts | 47° |
| 2026-05-07 12:23 | 52.39969 | 4.80507 | 3777 ft | 254 kts | 46° |
| 2026-05-07 12:23 | 52.41167 | 4.82671 | 4724 ft | 259 kts | 53° |
| 2026-05-07 12:24 | 52.42022 | 4.85256 | 5595 ft | 265 kts | 70° |
| 2026-05-07 12:24 | 52.42389 | 4.88269 | 6496 ft | 270 kts | 89° |
| 2026-05-07 12:24 | 52.42396 | 4.91337 | 7304 ft | 275 kts | 91° |
| 2026-05-07 12:24 | 52.42364 | 4.94490 | 8137 ft | 279 kts | 97° |
| 2026-05-07 12:25 | 52.41878 | 4.97612 | 8971 ft | 283 kts | 115° |
| 2026-05-07 12:25 | 52.40855 | 5.00323 | 9798 ft | 286 kts | 132° |
| 2026-05-07 12:25 | 52.39351 | 5.02475 | 10523 ft | 293 kts | 146° |
| 2026-05-07 12:25 | 52.37615 | 5.04470 | 10800 ft | 316 kts | 146° |
| 2026-05-07 12:26 | 52.35765 | 5.06585 | 11294 ft | 330 kts | 146° |
| 2026-05-07 12:26 | 52.33884 | 5.08790 | 12003 ft | 336 kts | 142° |
| 2026-05-07 12:26 | 52.32206 | 5.11479 | 12750 ft | 341 kts | 132° |
| 2026-05-07 12:26 | 52.30618 | 5.14388 | 13511 ft | 345 kts | 132° |
| 2026-05-07 12:27 | 52.29007 | 5.17333 | 14186 ft | 350 kts | 132° |
| 2026-05-07 12:27 | 52.27372 | 5.20307 | 14853 ft | 354 kts | 132° |
| 2026-05-07 12:27 | 52.25721 | 5.23309 | 15523 ft | 357 kts | 132° |
| 2026-05-07 12:27 | 52.24099 | 5.26406 | 16162 ft | 361 kts | 127° |
| 2026-05-07 12:28 | 52.22644 | 5.29769 | 16826 ft | 364 kts | 126° |
| 2026-05-07 12:28 | 52.21178 | 5.33165 | 17485 ft | 368 kts | 126° |
| 2026-05-07 12:28 | 52.19691 | 5.36593 | 18117 ft | 372 kts | 126° |
| 2026-05-07 12:28 | 52.18186 | 5.40046 | 18697 ft | 376 kts | 126° |
| 2026-05-07 12:29 | 52.16662 | 5.43536 | 19232 ft | 380 kts | 126° |
| 2026-05-07 12:29 | 52.15126 | 5.47049 | 19807 ft | 382 kts | 126° |
| 2026-05-07 12:29 | 52.13579 | 5.50583 | 20382 ft | 384 kts | 126° |
| 2026-05-07 12:29 | 52.12026 | 5.54135 | 20950 ft | 387 kts | 126° |
| 2026-05-07 12:30 | 52.10451 | 5.57726 | 21502 ft | 390 kts | 126° |
| 2026-05-07 12:30 | 52.08874 | 5.61318 | 22044 ft | 393 kts | 126° |
| 2026-05-07 12:30 | 52.07286 | 5.64943 | 22583 ft | 396 kts | 126° |
| 2026-05-07 12:30 | 52.05631 | 5.68532 | 23112 ft | 398 kts | 131° |
| 2026-05-07 12:31 | 52.03811 | 5.71941 | 23632 ft | 401 kts | 132° |
| 2026-05-07 12:31 | 52.01975 | 5.75363 | 24076 ft | 403 kts | 132° |
| 2026-05-07 12:31 | 52.00123 | 5.78800 | 24519 ft | 406 kts | 132° |
| 2026-05-07 12:31 | 51.98257 | 5.82262 | 24952 ft | 408 kts | 132° |
| 2026-05-07 12:32 | 51.96385 | 5.85746 | 25378 ft | 411 kts | 132° |
| 2026-05-07 12:32 | 51.94470 | 5.89326 | 25529 ft | 421 kts | 132° |
| 2026-05-07 12:32 | 51.92533 | 5.92944 | 25783 ft | 427 kts | 132° |
| 2026-05-07 12:32 | 51.90574 | 5.96599 | 26139 ft | 430 kts | 132° |
| 2026-05-07 12:33 | 51.86652 | 6.03902 | 26883 ft | 436 kts | 132° |
| 2026-05-07 12:33 | 51.84654 | 6.07604 | 27261 ft | 438 kts | 132° |
| 2026-05-07 12:33 | 51.82639 | 6.11319 | 27629 ft | 440 kts | 132° |
| 2026-05-07 12:34 | 51.80610 | 6.15045 | 27996 ft | 443 kts | 133° |
| 2026-05-07 12:34 | 51.78570 | 6.18775 | 28354 ft | 445 kts | 133° |
| 2026-05-07 12:34 | 51.76514 | 6.22529 | 28692 ft | 447 kts | 133° |
| 2026-05-07 12:34 | 51.74448 | 6.26301 | 29037 ft | 450 kts | 133° |
| 2026-05-07 12:35 | 51.72371 | 6.30088 | 29360 ft | 452 kts | 133° |
| 2026-05-07 12:35 | 51.70276 | 6.33898 | 29670 ft | 454 kts | 132° |
| 2026-05-07 12:35 | 51.68176 | 6.37712 | 29962 ft | 457 kts | 132° |
| 2026-05-07 12:35 | 51.66061 | 6.41549 | 30281 ft | 458 kts | 132° |
| 2026-05-07 12:36 | 51.63946 | 6.45381 | 30662 ft | 457 kts | 133° |
| 2026-05-07 12:36 | 51.61836 | 6.49205 | 31009 ft | 457 kts | 133° |
| 2026-05-07 12:36 | 51.59722 | 6.53034 | 31349 ft | 457 kts | 132° |
| 2026-05-07 12:36 | 51.57609 | 6.56856 | 31709 ft | 457 kts | 132° |
| 2026-05-07 12:37 | 51.55498 | 6.60662 | 32078 ft | 456 kts | 132° |
| 2026-05-07 12:37 | 51.53385 | 6.64467 | 32468 ft | 455 kts | 133° |
| 2026-05-07 12:37 | 51.51274 | 6.68260 | 32823 ft | 455 kts | 133° |
| 2026-05-07 12:37 | 51.49162 | 6.72047 | 33192 ft | 455 kts | 133° |
| 2026-05-07 12:38 | 51.47052 | 6.75825 | 33517 ft | 456 kts | 132° |
| 2026-05-07 12:38 | 51.44941 | 6.79594 | 33824 ft | 456 kts | 132° |
| 2026-05-07 12:38 | 51.42826 | 6.83370 | 34165 ft | 456 kts | 132° |
| 2026-05-07 12:38 | 51.40599 | 6.86976 | 34430 ft | 455 kts | 140° |
| 2026-05-07 12:39 | 51.38076 | 6.90012 | 34736 ft | 454 kts | 148° |
| 2026-05-07 12:39 | 51.35401 | 6.92700 | 34986 ft | 454 kts | 149° |
| 2026-05-07 12:39 | 51.30054 | 6.98076 | 35057 ft | 454 kts | 149° |
| 2026-05-07 12:40 | 51.24706 | 7.03441 | 35059 ft | 454 kts | 149° |
| 2026-05-07 12:40 | 51.19382 | 7.08766 | 35048 ft | 454 kts | 149° |
| 2026-05-07 12:41 | 51.14029 | 7.14128 | 35051 ft | 455 kts | 149° |
| 2026-05-07 12:41 | 51.08662 | 7.19471 | 35044 ft | 455 kts | 149° |
| 2026-05-07 12:42 | 51.03296 | 7.24792 | 35055 ft | 454 kts | 149° |
| 2026-05-07 12:42 | 50.97930 | 7.30102 | 35055 ft | 454 kts | 149° |
| 2026-05-07 12:43 | 50.92567 | 7.35391 | 35054 ft | 454 kts | 149° |
| 2026-05-07 12:43 | 50.87203 | 7.40676 | 35044 ft | 454 kts | 149° |
| 2026-05-07 12:44 | 50.81838 | 7.45957 | 35036 ft | 454 kts | 149° |
| 2026-05-07 12:44 | 50.76475 | 7.51214 | 35038 ft | 454 kts | 149° |
| 2026-05-07 12:45 | 50.71109 | 7.56457 | 35034 ft | 454 kts | 148° |
| 2026-05-07 12:45 | 50.65808 | 7.61891 | 35026 ft | 455 kts | 147° |
| 2026-05-07 12:46 | 50.60549 | 7.67432 | 35025 ft | 455 kts | 147° |
| 2026-05-07 12:46 | 50.55295 | 7.72909 | 35026 ft | 456 kts | 147° |
| 2026-05-07 12:47 | 50.49984 | 7.78359 | 35026 ft | 456 kts | 148° |
| 2026-05-07 12:47 | 50.44672 | 7.83786 | 35041 ft | 456 kts | 148° |
| 2026-05-07 12:48 | 50.39355 | 7.89222 | 35029 ft | 456 kts | 148° |
| 2026-05-07 12:48 | 50.34039 | 7.94646 | 35023 ft | 456 kts | 148° |
| 2026-05-07 12:49 | 50.28726 | 8.00058 | 35034 ft | 456 kts | 148° |
| 2026-05-07 12:49 | 50.23395 | 8.05469 | 35029 ft | 457 kts | 148° |
| 2026-05-07 12:50 | 50.18062 | 8.10862 | 35029 ft | 457 kts | 148° |
| 2026-05-07 12:50 | 50.12504 | 8.15597 | 35022 ft | 455 kts | 161° |
| 2026-05-07 12:51 | 50.06425 | 8.18165 | 35036 ft | 453 kts | 167° |
| 2026-05-07 12:51 | 50.00304 | 8.20503 | 35037 ft | 453 kts | 167° |
| 2026-05-07 12:52 | 49.94185 | 8.22846 | 35036 ft | 453 kts | 167° |
| 2026-05-07 12:52 | 49.88070 | 8.25189 | 35018 ft | 452 kts | 167° |
| 2026-05-07 12:53 | 49.81960 | 8.27522 | 35017 ft | 452 kts | 167° |
| 2026-05-07 12:53 | 49.75849 | 8.29846 | 35018 ft | 452 kts | 167° |
| 2026-05-07 12:54 | 49.69732 | 8.32158 | 35021 ft | 452 kts | 167° |
| 2026-05-07 12:54 | 49.63617 | 8.34467 | 35012 ft | 452 kts | 168° |
| 2026-05-07 12:55 | 49.57499 | 8.36775 | 35016 ft | 452 kts | 168° |
| 2026-05-07 12:55 | 49.51389 | 8.39075 | 35017 ft | 452 kts | 168° |
| 2026-05-07 12:56 | 49.45317 | 8.41354 | 35020 ft | 452 kts | 168° |
| 2026-05-07 12:56 | 49.39194 | 8.43642 | 35014 ft | 452 kts | 168° |
| 2026-05-07 12:57 | 49.33082 | 8.45926 | 35037 ft | 452 kts | 168° |
| 2026-05-07 12:57 | 49.26966 | 8.48201 | 35032 ft | 452 kts | 168° |
| 2026-05-07 12:58 | 49.20846 | 8.50465 | 35015 ft | 452 kts | 168° |
| 2026-05-07 12:58 | 49.14729 | 8.52728 | 35014 ft | 452 kts | 168° |
| 2026-05-07 12:59 | 49.08610 | 8.54987 | 35016 ft | 452 kts | 168° |
| 2026-05-07 12:59 | 49.02486 | 8.57187 | 35014 ft | 451 kts | 172° |
| 2026-05-07 13:00 | 48.96270 | 8.57374 | 35008 ft | 446 kts | 191° |
| 2026-05-07 13:00 | 48.90253 | 8.55473 | 35009 ft | 445 kts | 194° |
| 2026-05-07 13:01 | 48.84201 | 8.53514 | 35015 ft | 445 kts | 194° |
| 2026-05-07 13:01 | 48.78140 | 8.51569 | 35016 ft | 445 kts | 194° |
| 2026-05-07 13:02 | 48.72082 | 8.49631 | 35004 ft | 445 kts | 194° |
| 2026-05-07 13:02 | 48.66026 | 8.47700 | 35012 ft | 445 kts | 194° |
| 2026-05-07 13:03 | 48.60995 | 8.46089 | 35015 ft | 445 kts | 194° |
| 2026-05-07 13:03 | 48.54949 | 8.44149 | 35019 ft | 444 kts | 194° |
| 2026-05-07 13:04 | 48.48896 | 8.42212 | 35026 ft | 444 kts | 194° |
| 2026-05-07 13:04 | 48.42847 | 8.40292 | 35022 ft | 444 kts | 194° |
| 2026-05-07 13:05 | 48.36793 | 8.38380 | 35029 ft | 444 kts | 194° |
| 2026-05-07 13:05 | 48.30749 | 8.36468 | 35029 ft | 444 kts | 194° |
| 2026-05-07 13:06 | 48.24698 | 8.34557 | 35027 ft | 444 kts | 194° |
| 2026-05-07 13:06 | 48.18639 | 8.32787 | 35029 ft | 445 kts | 188° |
| 2026-05-07 13:07 | 48.12432 | 8.33224 | 35025 ft | 450 kts | 173° |
| 2026-05-07 13:07 | 48.06250 | 8.34742 | 35025 ft | 451 kts | 173° |
| 2026-05-07 13:08 | 48.00060 | 8.36234 | 35024 ft | 451 kts | 173° |
| 2026-05-07 13:08 | 47.93899 | 8.37714 | 35036 ft | 454 kts | 173° |
| 2026-05-07 13:09 | 47.87593 | 8.39231 | 35041 ft | 462 kts | 174° |
| 2026-05-07 13:09 | 47.81267 | 8.40741 | 35040 ft | 463 kts | 174° |
| 2026-05-07 13:10 | 47.74882 | 8.42265 | 35039 ft | 463 kts | 173° |
| 2026-05-07 13:10 | 47.68519 | 8.43786 | 35040 ft | 463 kts | 174° |
| 2026-05-07 13:11 | 47.62136 | 8.44924 | 35046 ft | 461 kts | 178° |
| 2026-05-07 13:11 | 47.55744 | 8.45724 | 35049 ft | 461 kts | 178° |
| 2026-05-07 13:12 | 47.49358 | 8.46612 | 35049 ft | 461 kts | 177° |
| 2026-05-07 13:12 | 47.42977 | 8.47603 | 35037 ft | 461 kts | 177° |
| 2026-05-07 13:13 | 47.36589 | 8.48575 | 35040 ft | 461 kts | 178° |
| 2026-05-07 13:13 | 47.30198 | 8.49503 | 35041 ft | 461 kts | 178° |
| 2026-05-07 13:14 | 47.23807 | 8.50425 | 35030 ft | 461 kts | 178° |
| 2026-05-07 13:14 | 47.17413 | 8.51343 | 35032 ft | 462 kts | 178° |
| 2026-05-07 13:15 | 47.11019 | 8.52253 | 35031 ft | 462 kts | 178° |
| 2026-05-07 13:15 | 47.04629 | 8.53168 | 35007 ft | 461 kts | 178° |
| 2026-05-07 13:16 | 46.98240 | 8.54084 | 35012 ft | 461 kts | 178° |
| 2026-05-07 13:16 | 46.91890 | 8.54993 | 35015 ft | 461 kts | 178° |
| 2026-05-07 13:17 | 46.85498 | 8.55902 | 34993 ft | 462 kts | 178° |
| 2026-05-07 13:17 | 46.79106 | 8.56815 | 34993 ft | 461 kts | 179° |
| 2026-05-07 13:18 | 46.72718 | 8.57724 | 34996 ft | 461 kts | 179° |
| 2026-05-07 13:18 | 46.66340 | 8.58622 | 35001 ft | 460 kts | 179° |
| 2026-05-07 13:19 | 46.59959 | 8.59511 | 34981 ft | 460 kts | 179° |
| 2026-05-07 13:19 | 46.53586 | 8.60415 | 34989 ft | 460 kts | 179° |
| 2026-05-07 13:20 | 46.47216 | 8.61316 | 34975 ft | 459 kts | 179° |
| 2026-05-07 13:20 | 46.40857 | 8.62218 | 34987 ft | 460 kts | 179° |
| 2026-05-07 13:21 | 46.34490 | 8.63109 | 34988 ft | 460 kts | 179° |
| 2026-05-07 13:21 | 46.28120 | 8.64007 | 34978 ft | 459 kts | 179° |
| 2026-05-07 13:22 | 46.21768 | 8.64910 | 34970 ft | 459 kts | 179° |
| 2026-05-07 13:22 | 46.15440 | 8.65793 | 34641 ft | 460 kts | 180° |
| 2026-05-07 13:23 | 46.12293 | 8.66402 | 34385 ft | 457 kts | 173° |
| 2026-05-07 13:23 | 46.09197 | 8.67709 | 34150 ft | 461 kts | 163° |
| 2026-05-07 13:23 | 46.06286 | 8.69717 | 33900 ft | 467 kts | 156° |
| 2026-05-07 13:23 | 46.03473 | 8.71956 | 33612 ft | 467 kts | 156° |
| 2026-05-07 13:24 | 46.00591 | 8.74233 | 33334 ft | 468 kts | 156° |
| 2026-05-07 13:24 | 45.97734 | 8.76470 | 33063 ft | 468 kts | 157° |
| 2026-05-07 13:24 | 45.94901 | 8.78678 | 32822 ft | 469 kts | 156° |
| 2026-05-07 13:24 | 45.92007 | 8.80932 | 32363 ft | 465 kts | 156° |
| 2026-05-07 13:25 | 45.89173 | 8.83136 | 31038 ft | 465 kts | 156° |
| 2026-05-07 13:25 | 45.86347 | 8.85329 | 30425 ft | 451 kts | 156° |
| 2026-05-07 13:25 | 45.83672 | 8.87418 | 30283 ft | 426 kts | 156° |
| 2026-05-07 13:25 | 45.81156 | 8.89386 | 29776 ft | 411 kts | 157° |
| 2026-05-07 13:26 | 45.78666 | 8.91323 | 28990 ft | 404 kts | 157° |
| 2026-05-07 13:26 | 45.76209 | 8.93223 | 28142 ft | 398 kts | 157° |
| 2026-05-07 13:26 | 45.73749 | 8.95120 | 26875 ft | 405 kts | 156° |
| 2026-05-07 13:26 | 45.71311 | 8.97000 | 26336 ft | 392 kts | 156° |
| 2026-05-07 13:27 | 45.68937 | 8.98831 | 25638 ft | 385 kts | 155° |
| 2026-05-07 13:27 | 45.66595 | 9.00633 | 24922 ft | 379 kts | 155° |
| 2026-05-07 13:27 | 45.64273 | 9.02415 | 23929 ft | 382 kts | 155° |
| 2026-05-07 13:27 | 45.61905 | 9.04226 | 22600 ft | 389 kts | 154° |
| 2026-05-07 13:28 | 45.59502 | 9.06063 | 21228 ft | 395 kts | 154° |
| 2026-05-07 13:28 | 45.57063 | 9.07932 | 19941 ft | 400 kts | 154° |
| 2026-05-07 13:28 | 45.54603 | 9.09817 | 18710 ft | 403 kts | 154° |
| 2026-05-07 13:28 | 45.52121 | 9.11701 | 17407 ft | 403 kts | 156° |
| 2026-05-07 13:29 | 45.49473 | 9.12879 | 15941 ft | 399 kts | 175° |
| 2026-05-07 13:29 | 45.46705 | 9.13247 | 14519 ft | 401 kts | 178° |
| 2026-05-07 13:29 | 45.43934 | 9.13551 | 13261 ft | 397 kts | 178° |
| 2026-05-07 13:29 | 45.41194 | 9.13834 | 11947 ft | 392 kts | 178° |
| 2026-05-07 13:30 | 45.38489 | 9.14111 | 10684 ft | 387 kts | 177° |
| 2026-05-07 13:30 | 45.35824 | 9.14393 | 9594 ft | 378 kts | 177° |
| 2026-05-07 13:30 | 45.33303 | 9.14669 | 9302 ft | 347 kts | 177° |
| 2026-05-07 13:30 | 45.30998 | 9.14927 | 9167 ft | 317 kts | 177° |
| 2026-05-07 13:31 | 45.28887 | 9.15162 | 9036 ft | 291 kts | 177° |
| 2026-05-07 13:31 | 45.26945 | 9.15381 | 8902 ft | 269 kts | 177° |
| 2026-05-07 13:31 | 45.25122 | 9.15587 | 8773 ft | 257 kts | 177° |
| 2026-05-07 13:31 | 45.23377 | 9.15784 | 8647 ft | 246 kts | 177° |
| 2026-05-07 13:32 | 45.21694 | 9.15974 | 8521 ft | 240 kts | 177° |
| 2026-05-07 13:32 | 45.20034 | 9.16160 | 8330 ft | 240 kts | 174° |
| 2026-05-07 13:32 | 45.18494 | 9.16990 | 8073 ft | 240 kts | 143° |
| 2026-05-07 13:32 | 45.17450 | 9.18850 | 7615 ft | 248 kts | 112° |
| 2026-05-07 13:33 | 45.17214 | 9.21271 | 7118 ft | 255 kts | 81° |
| 2026-05-07 13:33 | 45.17867 | 9.23563 | 6637 ft | 259 kts | 51° |
| 2026-05-07 13:33 | 45.19255 | 9.25182 | 6140 ft | 261 kts | 27° |
| 2026-05-07 13:33 | 45.20866 | 9.26325 | 5757 ft | 255 kts | 24° |
| 2026-05-07 13:34 | 45.22442 | 9.27372 | 5381 ft | 245 kts | 24° |
| 2026-05-07 13:34 | 45.25458 | 9.29335 | 4623 ft | 233 kts | 18° |
| 2026-05-07 13:34 | 45.27028 | 9.29597 | 4244 ft | 225 kts | 354° |
| 2026-05-07 13:35 | 45.28583 | 9.29425 | 3794 ft | 225 kts | 354° |
| 2026-05-07 13:35 | 45.30153 | 9.29250 | 3262 ft | 227 kts | 354° |
| 2026-05-07 13:35 | 45.31709 | 9.29082 | 2728 ft | 220 kts | 355° |
| 2026-05-07 13:35 | 45.33191 | 9.28923 | 2388 ft | 207 kts | 354° |
| 2026-05-07 13:36 | 45.34573 | 9.28776 | 2120 ft | 190 kts | 354° |
| 2026-05-07 13:36 | 45.35827 | 9.28641 | 1886 ft | 171 kts | 354° |
| 2026-05-07 13:36 | 45.36956 | 9.28520 | 1643 ft | 156 kts | 354° |
| 2026-05-07 13:36 | 45.38018 | 9.28406 | 1434 ft | 151 kts | 354° |
| 2026-05-07 13:37 | 45.39052 | 9.28295 | 1243 ft | 148 kts | 355° |
| 2026-05-07 13:37 | 45.40077 | 9.28184 | 1041 ft | 149 kts | 354° |
| 2026-05-07 13:37 | 45.41106 | 9.28073 | 835 ft | 148 kts | 353° |
| 2026-05-07 13:37 | 45.42137 | 9.27967 | 643 ft | 148 kts | 355° |
| 2026-05-07 13:38 | 45.43158 | 9.27856 | 457 ft | 147 kts | 353° |
| 2026-05-07 13:38 | 45.44155 | 9.27747 | 363 ft | 134 kts | 354° |
| 2026-05-07 13:38 | 45.44921 | 9.27662 | 362 ft | 72 kts | 356° |
| 2026-05-07 13:38 | 45.45214 | 9.27630 | 358 ft | 24 kts | 355° |
| 2026-05-07 13:39 | 45.45352 | 9.27686 | 362 ft | 15 kts | 25° |
| 2026-05-07 13:39 | 45.45403 | 9.27725 | 365 ft | 7 kts | 28° |
| 2026-05-07 13:39 | 45.45451 | 9.27783 | 364 ft | 12 kts | 57° |
| 2026-05-07 13:39 | 45.45459 | 9.27872 | 360 ft | 8 kts | 89° |
| 2026-05-07 13:40 | 45.45458 | 9.27942 | 360 ft | 7 kts | 86° |
| 2026-05-07 13:40 | 45.45516 | 9.27978 | 363 ft | 11 kts | 0° |
| 2026-05-07 13:40 | 45.45585 | 9.27979 | 360 ft | 9 kts | 0° |
| 2026-05-07 13:40 | 45.45645 | 9.27979 | 363 ft | 8 kts | 360° |
| 2026-05-07 13:41 | 45.45697 | 9.27978 | 360 ft | 7 kts | 360° |
| 2026-05-07 13:41 | 45.45743 | 9.27980 | 360 ft | 6 kts | 2° |
| 2026-05-07 13:41 | 45.45767 | 9.28013 | 366 ft | 5 kts | 73° |
| 2026-05-07 13:41 | 45.45769 | 9.28056 | 362 ft | 4 kts | 89° |
| 2026-05-07 13:42 | 45.45769 | 9.28075 | 360 ft | 0 kts | 90° |